Time;durP1;ratioP1;P1;durP2;ratioP2;P2;SDS_P1;SDS_P2;PMS_P1;PMS_P2;Temp;Humidity;BMP_temperature;BMP_pressure;BME280_temperature;BME280_humidity;BME280_pressure;Samples;Min_cycle;Max_cycle;Signal;HPM_P1;HPM_P2
2023/06/14 00:01:20;;;;;;;6.37;4.43;;;;;;;;;;5095647;28;20458;-63
2023/06/14 00:03:48;;;;;;;4.77;4.20;;;;;;;;;;5095644;28;20931;-62
2023/06/14 00:06:15;;;;;;;5.40;4.20;;;;;;;;;;5096378;28;20445;-62
2023/06/14 00:08:42;;;;;;;6.10;3.87;;;;;;;;;;5095645;28;20906;-62
2023/06/14 00:11:10;;;;;;;6.53;4.00;;;;;;;;;;5095651;28;20466;-62
2023/06/14 00:13:37;;;;;;;4.53;4.10;;;;;;;;;;5095998;28;20437;-63
2023/06/14 00:16:05;;;;;;;5.03;3.83;;;;;;;;;;5096031;28;20475;-62
2023/06/14 00:18:33;;;;;;;4.30;3.90;;;;;;;;;;5095440;28;20443;-62
2023/06/14 00:21:02;;;;;;;9.00;4.20;;;;;;;;;;5095733;28;20442;-62
2023/06/14 00:23:29;;;;;;;5.43;3.70;;;;;;;;;;5095308;28;20480;-63
2023/06/14 00:25:56;;;;;;;7.53;4.10;;;;;;;;;;5095671;28;20881;-62
2023/06/14 00:28:23;;;;;;;4.63;4.17;;;;;;;;;;5095753;28;20442;-63
2023/06/14 00:30:50;;;;;;;7.87;4.47;;;;;;;;;;5095296;28;21015;-62
2023/06/14 00:33:19;;;;;;;8.37;3.90;;;;;;;;;;5095084;28;20451;-63
2023/06/14 00:35:46;;;;;;;4.10;3.67;;;;;;;;;;5095069;28;20484;-62
2023/06/14 00:38:14;;;;;;;3.97;3.63;;;;;;;;;;5095409;28;20445;-62
2023/06/14 00:40:41;;;;;;;3.70;3.40;;;;;;;;;;5095272;28;20441;-63
2023/06/14 00:43:08;;;;;;;5.87;4.67;;;;;;;;;;5095695;28;20472;-62
2023/06/14 00:45:35;;;;;;;9.23;4.13;;;;;;;;;;5095193;28;20446;-63
2023/06/14 00:48:03;;;;;;;8.30;3.87;;;;;;;;;;5095286;28;20535;-62
2023/06/14 00:50:32;;;;;;;3.80;3.47;;;;;;;;;;5095096;28;20933;-62
2023/06/14 00:53:00;;;;;;;5.30;3.77;;;;;;;;;;5095106;28;20476;-62
2023/06/14 00:55:28;;;;;;;4.27;3.77;;;;;;;;;;5094917;28;20483;-63
2023/06/14 00:57:55;;;;;;;4.33;3.93;;;;;;;;;;5094723;28;20949;-60
2023/06/14 01:00:23;;;;;;;6.20;4.10;;;;;;;;;;5094896;28;20454;-62
2023/06/14 01:02:50;;;;;;;3.67;3.37;;;;;;;;;;5094752;28;20444;-62
2023/06/14 01:05:18;;;;;;;4.43;4.03;;;;;;;;;;5094649;28;20480;-62
2023/06/14 01:07:53;;;;;;;4.33;3.80;;;;;;;;;;5094872;28;20433;-62
2023/06/14 01:10:26;;;;;;;7.23;3.63;;;;;;;;;;5094669;28;20427;-61
2023/06/14 01:12:57;;;;;;;4.00;3.60;;;;;;;;;;5094361;28;20429;-63
2023/06/14 01:15:24;;;;;;;5.50;3.50;;;;;;;;;;5094685;28;20495;-63
2023/06/14 01:17:53;;;;;;;3.97;3.57;;;;;;;;;;5094251;28;20474;-63
2023/06/14 01:20:22;;;;;;;5.73;3.97;;;;;;;;;;5094477;28;20447;-61
2023/06/14 01:22:54;;;;;;;4.80;3.70;;;;;;;;;;5094121;28;20450;-62
2023/06/14 01:25:22;;;;;;;5.87;3.53;;;;;;;;;;5094375;28;20421;-61
2023/06/14 01:27:50;;;;;;;12.73;4.63;;;;;;;;;;5094815;28;20806;-62
2023/06/14 01:30:18;;;;;;;4.27;3.80;;;;;;;;;;5093796;28;20472;-62
2023/06/14 01:32:45;;;;;;;4.93;3.70;;;;;;;;;;5094031;28;20973;-62
2023/06/14 01:35:12;;;;;;;5.33;3.53;;;;;;;;;;5094440;28;20477;-63
2023/06/14 01:37:41;;;;;;;5.13;3.40;;;;;;;;;;5094333;28;20794;-62
2023/06/14 01:40:11;;;;;;;4.03;3.63;;;;;;;;;;5093763;28;20451;-62
2023/06/14 01:42:39;;;;;;;6.33;3.50;;;;;;;;;;5094743;28;20445;-62
2023/06/14 01:45:07;;;;;;;3.80;3.50;;;;;;;;;;5094068;28;20444;-62
2023/06/14 01:47:35;;;;;;;5.23;3.43;;;;;;;;;;5093800;28;20968;-61
2023/06/14 01:50:03;;;;;;;3.83;3.53;;;;;;;;;;5093628;28;20447;-62
2023/06/14 01:52:30;;;;;;;4.80;3.20;;;;;;;;;;5094214;28;20509;-62
2023/06/14 01:55:01;;;;;;;4.93;3.30;;;;;;;;;;5093739;28;20472;-62
2023/06/14 01:57:30;;;;;;;4.60;3.30;;;;;;;;;;5094023;28;20520;-62
2023/06/14 01:59:57;;;;;;;4.17;3.77;;;;;;;;;;5093804;28;20463;-61
2023/06/14 02:02:24;;;;;;;4.13;3.83;;;;;;;;;;5093547;28;20439;-61
2023/06/14 02:04:52;;;;;;;3.87;3.40;;;;;;;;;;5093762;28;20441;-63
2023/06/14 02:07:19;;;;;;;4.07;3.60;;;;;;;;;;5094100;28;20476;-61
2023/06/14 02:09:46;;;;;;;8.90;3.83;;;;;;;;;;5093973;28;20436;-62
2023/06/14 02:12:13;;;;;;;6.37;3.70;;;;;;;;;;5093958;28;20432;-62
2023/06/14 02:14:42;;;;;;;4.10;3.13;;;;;;;;;;5093505;28;20435;-62
2023/06/14 02:17:09;;;;;;;5.70;3.60;;;;;;;;;;5093667;28;20438;-61
2023/06/14 02:19:36;;;;;;;5.07;3.50;;;;;;;;;;5093252;28;20448;-61
2023/06/14 02:22:04;;;;;;;8.77;4.00;;;;;;;;;;5093250;28;20440;-61
2023/06/14 02:24:31;;;;;;;4.53;3.30;;;;;;;;;;5093574;28;20452;-61
2023/06/14 02:26:58;;;;;;;3.53;3.30;;;;;;;;;;5093760;28;20439;-62
2023/06/14 02:29:25;;;;;;;3.90;3.20;;;;;;;;;;5093488;28;20434;-62
2023/06/14 02:31:54;;;;;;;5.60;4.00;;;;;;;;;;5093635;28;20503;-62
2023/06/14 02:34:21;;;;;;;6.23;4.17;;;;;;;;;;5093232;28;20475;-62
2023/06/14 02:36:49;;;;;;;6.97;4.13;;;;;;;;;;5093147;28;20471;-62
2023/06/14 02:39:17;;;;;;;4.70;4.23;;;;;;;;;;5093446;28;20800;-62
2023/06/14 02:41:44;;;;;;;3.80;3.40;;;;;;;;;;5093444;28;20440;-62
2023/06/14 02:44:12;;;;;;;3.90;3.60;;;;;;;;;;5096378;28;20449;-62
2023/06/14 02:46:40;;;;;;;3.50;3.10;;;;;;;;;;5097529;28;20824;-61
2023/06/14 02:49:08;;;;;;;4.17;3.10;;;;;;;;;;5098060;28;20473;-62
2023/06/14 02:51:35;;;;;;;4.70;3.40;;;;;;;;;;5097403;28;20447;-61
2023/06/14 02:54:03;;;;;;;4.43;4.03;;;;;;;;;;5097458;28;20442;-62
2023/06/14 02:56:30;;;;;;;4.57;4.17;;;;;;;;;;5097487;28;20479;-62
2023/06/14 02:58:58;;;;;;;9.13;3.70;;;;;;;;;;5097400;28;20440;-62
2023/06/14 03:01:34;;;;;;;4.20;3.77;;;;;;;;;;5097350;28;20443;-62
2023/06/14 03:04:01;;;;;;;3.17;2.97;;;;;;;;;;5097709;28;20440;-61
2023/06/14 03:06:30;;;;;;;3.77;3.47;;;;;;;;;;5096797;28;20451;-62
2023/06/14 03:08:59;;;;;;;8.40;4.53;;;;;;;;;;5097111;28;20799;-62
2023/06/14 03:11:26;;;;;;;6.77;4.10;;;;;;;;;;5096658;28;20450;-61
2023/06/14 03:13:55;;;;;;;4.63;4.00;;;;;;;;;;5097036;28;20541;-61
2023/06/14 03:16:23;;;;;;;11.60;5.20;;;;;;;;;;5096782;28;20560;-61
2023/06/14 03:18:51;;;;;;;6.00;4.07;;;;;;;;;;5097167;28;20533;-61
2023/06/14 03:21:19;;;;;;;4.83;4.30;;;;;;;;;;5096979;28;20446;-61
2023/06/14 03:23:47;;;;;;;8.40;4.00;;;;;;;;;;5096841;28;20454;-62
2023/06/14 03:26:17;;;;;;;10.37;4.07;;;;;;;;;;5097242;28;20445;-61
2023/06/14 03:28:45;;;;;;;5.80;3.70;;;;;;;;;;5096724;28;20439;-61
2023/06/14 03:31:12;;;;;;;4.50;3.60;;;;;;;;;;5096472;28;20474;-63
2023/06/14 03:33:39;;;;;;;4.50;4.07;;;;;;;;;;5096656;28;20448;-61
2023/06/14 03:36:07;;;;;;;12.30;3.83;;;;;;;;;;5096893;28;20471;-61
2023/06/14 03:38:35;;;;;;;7.83;3.90;;;;;;;;;;5096357;28;20440;-61
2023/06/14 03:41:03;;;;;;;5.77;3.30;;;;;;;;;;5096412;28;20487;-62
2023/06/14 03:43:31;;;;;;;8.07;3.33;;;;;;;;;;5096752;28;20778;-61
2023/06/14 03:45:58;;;;;;;5.07;3.40;;;;;;;;;;5096004;28;20436;-62
2023/06/14 03:48:25;;;;;;;8.03;3.67;;;;;;;;;;5096395;28;20446;-61
2023/06/14 03:50:54;;;;;;;7.20;4.37;;;;;;;;;;5096463;28;20436;-62
2023/06/14 03:53:23;;;;;;;6.63;3.77;;;;;;;;;;5095554;28;20962;-61
2023/06/14 03:55:52;;;;;;;4.80;3.83;;;;;;;;;;5094299;28;20494;-62
2023/06/14 03:58:21;;;;;;;5.33;3.23;;;;;;;;;;5094868;28;20472;-62
2023/06/14 04:00:48;;;;;;;4.50;4.10;;;;;;;;;;5094792;28;20546;-62
2023/06/14 04:03:16;;;;;;;3.70;3.40;;;;;;;;;;5095469;28;20469;-61
2023/06/14 04:05:44;;;;;;;10.37;4.73;;;;;;;;;;5095123;28;20452;-61
2023/06/14 04:08:14;;;;;;;4.30;3.63;;;;;;;;;;5095551;28;20443;-61
2023/06/14 04:10:41;;;;;;;4.67;3.50;;;;;;;;;;5075377;28;20429;-61
2023/06/14 04:13:11;;;;;;;4.23;3.93;;;;;;;;;;5075204;28;20453;-62
2023/06/14 04:15:43;;;;;;;47.17;19.47;;;;;;;;;;5074824;28;20496;-61
2023/06/14 04:18:10;;;;;;;5.20;3.93;;;;;;;;;;5075327;28;20502;-62
2023/06/14 04:20:39;;;;;;;7.17;3.70;;;;;;;;;;5075149;28;20456;-62
2023/06/14 04:23:15;;;;;;;9.37;3.77;;;;;;;;;;5074911;28;20936;-61
2023/06/14 04:25:44;;;;;;;5.77;3.53;;;;;;;;;;5074392;28;20455;-62
2023/06/14 04:28:12;;;;;;;4.03;3.67;;;;;;;;;;5074785;28;20971;-62
2023/06/14 04:30:40;;;;;;;4.97;3.90;;;;;;;;;;5074893;28;20482;-62
2023/06/14 04:33:09;;;;;;;4.53;3.30;;;;;;;;;;5074835;28;20448;-61
2023/06/14 04:35:37;;;;;;;6.80;5.97;;;;;;;;;;5074879;28;20481;-62
2023/06/14 04:38:09;;;;;;;8.27;4.93;;;;;;;;;;5075139;28;20492;-62
2023/06/14 04:40:42;;;;;;;6.60;5.23;;;;;;;;;;5075310;28;20434;-62
2023/06/14 04:43:12;;;;;;;3.87;3.20;;;;;;;;;;5074794;28;20425;-60
2023/06/14 04:45:44;;;;;;;6.50;3.90;;;;;;;;;;5074698;28;20437;-60
2023/06/14 04:48:12;;;;;;;5.10;4.27;;;;;;;;;;5074488;28;20918;-60
2023/06/14 04:50:40;;;;;;;3.90;3.37;;;;;;;;;;5074587;28;20500;-60
2023/06/14 04:53:08;;;;;;;5.47;3.90;;;;;;;;;;5074484;28;20502;-60
2023/06/14 04:55:35;;;;;;;5.10;3.60;;;;;;;;;;5092407;28;20528;-60
2023/06/14 04:58:03;;;;;;;4.07;3.77;;;;;;;;;;5094342;28;20929;-60
2023/06/14 05:00:30;;;;;;;5.27;3.27;;;;;;;;;;5095045;28;20448;-60
2023/06/14 05:02:58;;;;;;;3.93;3.53;;;;;;;;;;5094565;28;20489;-60
2023/06/14 05:05:26;;;;;;;4.27;3.20;;;;;;;;;;5093354;28;20443;-60
2023/06/14 05:07:53;;;;;;;7.07;2.90;;;;;;;;;;5093966;28;20450;-60
2023/06/14 05:10:20;;;;;;;7.03;3.30;;;;;;;;;;5094024;28;20445;-60
2023/06/14 05:12:47;;;;;;;5.70;3.90;;;;;;;;;;5094245;28;20459;-59
2023/06/14 05:15:15;;;;;;;5.57;3.50;;;;;;;;;;5094099;28;20456;-60
2023/06/14 05:17:42;;;;;;;6.80;3.73;;;;;;;;;;5093710;28;20490;-59
2023/06/14 05:20:12;;;;;;;7.77;3.80;;;;;;;;;;5094434;28;20432;-60
2023/06/14 05:22:39;;;;;;;4.00;3.10;;;;;;;;;;5094259;28;20445;-60
2023/06/14 05:25:07;;;;;;;5.90;3.40;;;;;;;;;;5093963;28;20442;-60
2023/06/14 05:27:36;;;;;;;5.03;4.53;;;;;;;;;;5094025;28;20448;-60
2023/06/14 05:30:04;;;;;;;5.97;3.77;;;;;;;;;;5093045;28;20471;-60
2023/06/14 05:32:32;;;;;;;6.03;3.40;;;;;;;;;;5093408;28;20441;-60
2023/06/14 05:34:59;;;;;;;3.67;3.30;;;;;;;;;;5093825;28;20448;-60
2023/06/14 05:37:27;;;;;;;6.90;3.50;;;;;;;;;;5093448;28;20476;-59
2023/06/14 05:39:54;;;;;;;3.70;3.40;;;;;;;;;;5093593;28;20444;-60
2023/06/14 05:42:22;;;;;;;6.10;3.30;;;;;;;;;;5093824;28;20453;-60
2023/06/14 05:44:49;;;;;;;3.60;3.30;;;;;;;;;;5093222;28;20482;-60
2023/06/14 05:47:16;;;;;;;4.60;3.60;;;;;;;;;;5093750;28;20491;-60
2023/06/14 05:49:43;;;;;;;4.07;3.10;;;;;;;;;;5093700;28;20513;-60
2023/06/14 05:52:12;;;;;;;4.80;3.27;;;;;;;;;;5093812;28;20439;-60
2023/06/14 05:54:41;;;;;;;5.77;3.40;;;;;;;;;;5093170;28;20448;-60
2023/06/14 05:57:09;;;;;;;5.10;3.77;;;;;;;;;;5093482;28;20515;-60
2023/06/14 05:59:36;;;;;;;5.73;3.10;;;;;;;;;;5093219;28;20446;-59
2023/06/14 06:02:03;;;;;;;8.77;3.20;;;;;;;;;;5093267;28;20444;-59
2023/06/14 06:04:30;;;;;;;5.53;3.10;;;;;;;;;;5093212;28;20444;-60
2023/06/14 06:06:57;;;;;;;4.77;3.67;;;;;;;;;;5093036;28;20503;-60
2023/06/14 06:09:25;;;;;;;4.97;2.97;;;;;;;;;;5093170;28;20764;-60
2023/06/14 06:11:53;;;;;;;4.37;3.03;;;;;;;;;;5093301;28;20447;-60
2023/06/14 06:14:20;;;;;;;8.80;7.53;;;;;;;;;;5093220;28;20449;-62
2023/06/14 06:16:47;;;;;;;4.83;4.43;;;;;;;;;;5093255;28;20471;-62
2023/06/14 06:19:15;;;;;;;4.47;2.70;;;;;;;;;;5093094;28;20542;-62
2023/06/14 06:21:42;;;;;;;3.57;2.40;;;;;;;;;;5092888;28;20456;-61
2023/06/14 06:24:09;;;;;;;4.23;3.13;;;;;;;;;;5092783;28;20450;-62
2023/06/14 06:26:36;;;;;;;7.20;3.33;;;;;;;;;;5093441;28;20456;-62
2023/06/14 06:29:05;;;;;;;4.33;3.33;;;;;;;;;;5092956;28;20449;-62
2023/06/14 06:31:32;;;;;;;3.40;2.90;;;;;;;;;;5092619;28;20480;-62
2023/06/14 06:33:59;;;;;;;5.60;2.80;;;;;;;;;;5092754;28;20481;-62
2023/06/14 06:36:26;;;;;;;4.53;2.87;;;;;;;;;;5093373;28;20477;-62
2023/06/14 06:38:53;;;;;;;2.73;2.50;;;;;;;;;;5092898;28;20440;-62
2023/06/14 06:41:21;;;;;;;5.10;2.80;;;;;;;;;;5093263;28;20439;-62
2023/06/14 06:43:48;;;;;;;7.73;3.10;;;;;;;;;;5092879;28;20483;-61
2023/06/14 06:46:18;;;;;;;3.50;2.67;;;;;;;;;;5092788;28;20452;-62
2023/06/14 06:48:45;;;;;;;2.97;2.67;;;;;;;;;;5092964;28;20929;-62
2023/06/14 06:51:12;;;;;;;6.40;2.93;;;;;;;;;;5092690;28;20453;-62
2023/06/14 06:53:40;;;;;;;5.40;2.60;;;;;;;;;;5092816;28;20529;-62
2023/06/14 06:56:07;;;;;;;3.20;2.87;;;;;;;;;;5092959;28;20532;-62
2023/06/14 06:58:34;;;;;;;3.33;2.50;;;;;;;;;;5092847;28;20440;-62
2023/06/14 07:01:01;;;;;;;3.53;2.67;;;;;;;;;;5093010;28;20449;-62
2023/06/14 07:03:30;;;;;;;4.47;3.27;;;;;;;;;;5092456;28;20442;-62
2023/06/14 07:05:57;;;;;;;4.40;2.67;;;;;;;;;;5092523;28;20448;-62
2023/06/14 07:08:24;;;;;;;2.70;2.40;;;;;;;;;;5092756;28;20766;-62
2023/06/14 07:10:51;;;;;;;4.30;2.50;;;;;;;;;;5092843;28;20441;-62
2023/06/14 07:13:19;;;;;;;2.43;2.20;;;;;;;;;;5092809;28;20441;-62
2023/06/14 07:15:46;;;;;;;5.70;2.30;;;;;;;;;;5092564;28;20486;-62
2023/06/14 07:18:13;;;;;;;6.83;2.77;;;;;;;;;;5092636;28;20813;-62
2023/06/14 07:20:42;;;;;;;2.50;2.30;;;;;;;;;;5092419;28;20447;-62
2023/06/14 07:23:10;;;;;;;2.90;2.30;;;;;;;;;;5092530;28;20441;-62
2023/06/14 07:25:37;;;;;;;4.70;2.60;;;;;;;;;;5092269;28;20494;-62
2023/06/14 07:28:05;;;;;;;2.60;2.40;;;;;;;;;;5092688;28;20452;-62
2023/06/14 07:30:32;;;;;;;2.23;2.13;;;;;;;;;;5095440;28;20491;-62
2023/06/14 07:32:59;;;;;;;2.60;2.40;;;;;;;;;;5096031;28;20437;-62
2023/06/14 07:35:27;;;;;;;2.90;2.40;;;;;;;;;;5096148;28;20477;-62
2023/06/14 07:37:55;;;;;;;4.53;2.60;;;;;;;;;;5096100;28;20477;-62
2023/06/14 07:40:22;;;;;;;4.47;2.50;;;;;;;;;;5095696;28;20987;-62
2023/06/14 07:42:50;;;;;;;5.00;2.80;;;;;;;;;;5095769;28;20954;-62
2023/06/14 07:45:18;;;;;;;6.20;2.20;;;;;;;;;;5095785;28;20445;-62
2023/06/14 07:47:45;;;;;;;3.33;3.07;;;;;;;;;;5096019;28;20441;-61
2023/06/14 07:50:12;;;;;;;3.10;2.33;;;;;;;;;;5095839;28;20446;-62
2023/06/14 07:52:40;;;;;;;2.47;2.27;;;;;;;;;;5095879;28;20536;-62
2023/06/14 07:55:09;;;;;;;2.60;2.40;;;;;;;;;;5095730;28;20447;-62
2023/06/14 07:57:36;;;;;;;4.30;2.30;;;;;;;;;;5095278;28;20510;-62
2023/06/14 08:00:06;;;;;;;3.93;2.60;;;;;;;;;;5095363;28;20502;-62
2023/06/14 08:02:34;;;;;;;2.60;2.40;;;;;;;;;;5095926;28;20437;-62
2023/06/14 08:05:01;;;;;;;2.60;2.40;;;;;;;;;;5094669;28;20948;-62
2023/06/14 08:07:28;;;;;;;3.40;2.40;;;;;;;;;;5095048;28;20528;-62
2023/06/14 08:09:55;;;;;;;7.00;2.60;;;;;;;;;;5095440;28;20533;-62
2023/06/14 08:12:24;;;;;;;2.70;2.50;;;;;;;;;;5095775;28;20448;-62
2023/06/14 08:14:51;;;;;;;5.33;2.63;;;;;;;;;;5095535;28;20446;-62
2023/06/14 08:17:18;;;;;;;2.70;2.03;;;;;;;;;;5095309;28;20473;-62
2023/06/14 08:19:46;;;;;;;3.00;2.20;;;;;;;;;;5095147;28;20966;-62
2023/06/14 08:22:13;;;;;;;2.73;2.40;;;;;;;;;;5095210;28;20880;-62
2023/06/14 08:24:40;;;;;;;2.20;1.97;;;;;;;;;;5095416;28;20447;-61
2023/06/14 08:27:07;;;;;;;2.00;1.90;;;;;;;;;;5095025;28;20486;-62
2023/06/14 08:29:36;;;;;;;3.03;2.43;;;;;;;;;;5095192;28;20525;-62
2023/06/14 08:32:03;;;;;;;3.07;2.63;;;;;;;;;;5095048;28;20970;-61
2023/06/14 08:34:30;;;;;;;2.63;2.00;;;;;;;;;;5095228;28;20446;-62
2023/06/14 08:36:57;;;;;;;2.87;2.40;;;;;;;;;;5095097;28;20474;-61
2023/06/14 08:39:25;;;;;;;11.20;2.30;;;;;;;;;;5095253;28;20468;-61
2023/06/14 08:41:54;;;;;;;3.10;1.80;;;;;;;;;;5094736;28;20441;-61
2023/06/14 08:44:21;;;;;;;3.63;2.30;;;;;;;;;;5093586;28;20447;-62
2023/06/14 08:46:50;;;;;;;6.70;2.13;;;;;;;;;;5094118;28;20449;-61
2023/06/14 08:49:18;;;;;;;3.10;2.60;;;;;;;;;;5094792;28;20953;-62
2023/06/14 08:51:47;;;;;;;2.80;2.30;;;;;;;;;;5094600;28;21011;-61
2023/06/14 08:54:15;;;;;;;2.20;1.93;;;;;;;;;;5094510;28;20439;-62
2023/06/14 08:56:43;;;;;;;4.20;2.40;;;;;;;;;;5094522;28;20837;-62
2023/06/14 08:59:11;;;;;;;7.17;2.30;;;;;;;;;;5094632;28;20453;-62
2023/06/14 09:01:39;;;;;;;3.57;2.00;;;;;;;;;;5094890;28;20451;-61
2023/06/14 09:04:08;;;;;;;2.27;1.63;;;;;;;;;;5094237;28;21003;-62
2023/06/14 09:06:36;;;;;;;3.53;1.70;;;;;;;;;;5093469;28;20436;-62
2023/06/14 09:09:04;;;;;;;2.10;1.70;;;;;;;;;;5094470;28;20957;-62
2023/06/14 09:11:31;;;;;;;2.60;1.93;;;;;;;;;;5094443;28;20467;-62
2023/06/14 09:13:59;;;;;;;3.40;1.73;;;;;;;;;;5094471;28;20447;-62
2023/06/14 09:16:27;;;;;;;3.87;1.90;;;;;;;;;;5094024;28;21006;-62
2023/06/14 09:18:55;;;;;;;3.87;2.10;;;;;;;;;;5094275;28;20481;-61
2023/06/14 09:21:24;;;;;;;3.17;2.00;;;;;;;;;;5094169;28;20447;-62
2023/06/14 09:23:51;;;;;;;4.93;2.10;;;;;;;;;;5093869;28;20481;-62
2023/06/14 09:26:19;;;;;;;2.37;2.17;;;;;;;;;;5093159;28;20453;-62
2023/06/14 09:28:47;;;;;;;1.73;1.63;;;;;;;;;;5093451;28;20561;-62
2023/06/14 09:31:14;;;;;;;3.80;2.50;;;;;;;;;;5093084;28;20477;-62
2023/06/14 09:33:47;;;;;;;2.10;2.00;;;;;;;;;;5094060;28;20533;-62
2023/06/14 09:36:17;;;;;;;3.30;2.23;;;;;;;;;;5093498;28;20474;-62
2023/06/14 09:38:54;;;;;;;2.30;2.10;;;;;;;;;;5093709;28;20471;-62
2023/06/14 09:41:22;;;;;;;2.20;1.90;;;;;;;;;;5093783;28;20783;-62
2023/06/14 09:43:49;;;;;;;2.93;2.63;;;;;;;;;;5093390;28;20448;-62
2023/06/14 09:46:16;;;;;;;3.60;2.27;;;;;;;;;;5093073;28;20470;-62
2023/06/14 09:48:44;;;;;;;4.07;2.20;;;;;;;;;;5093651;28;20498;-61
2023/06/14 09:51:11;;;;;;;4.30;2.03;;;;;;;;;;5093290;28;20445;-61
2023/06/14 09:53:39;;;;;;;4.23;2.33;;;;;;;;;;5093606;28;20453;-62
2023/06/14 09:56:08;;;;;;;3.00;2.43;;;;;;;;;;5093492;28;20541;-61
2023/06/14 09:58:38;;;;;;;3.30;2.23;;;;;;;;;;5093314;28;20491;-62
2023/06/14 10:01:07;;;;;;;2.13;1.93;;;;;;;;;;5093681;28;20457;-61
2023/06/14 10:03:34;;;;;;;4.13;2.00;;;;;;;;;;5093404;28;20450;-61
2023/06/14 10:06:03;;;;;;;1.80;1.70;;;;;;;;;;5093046;28;20448;-62
2023/06/14 10:08:33;;;;;;;2.10;1.90;;;;;;;;;;5093212;28;20449;-62
2023/06/14 10:11:00;;;;;;;2.30;2.10;;;;;;;;;;5093112;28;20492;-62
2023/06/14 10:13:30;;;;;;;3.30;1.70;;;;;;;;;;5093409;28;20450;-62
2023/06/14 10:16:00;;;;;;;2.47;2.10;;;;;;;;;;5093239;28;20491;-62
2023/06/14 10:18:32;;;;;;;3.40;1.90;;;;;;;;;;5093097;28;20478;-62
2023/06/14 10:21:08;;;;;;;3.33;2.30;;;;;;;;;;5093608;28;20877;-61
2023/06/14 10:23:37;;;;;;;3.60;2.03;;;;;;;;;;5093220;28;20833;-62
2023/06/14 10:26:04;;;;;;;6.60;2.10;;;;;;;;;;5092706;28;20479;-62
2023/06/14 10:28:33;;;;;;;4.27;1.93;;;;;;;;;;5093005;28;20463;-62
2023/06/14 10:31:04;;;;;;;2.23;1.90;;;;;;;;;;5092654;28;20506;-62
2023/06/14 10:33:32;;;;;;;4.60;2.17;;;;;;;;;;5092696;28;20435;-62
2023/06/14 10:36:23;;;;;;;2.10;1.90;;;;;;;;;;5092620;28;20446;-62
2023/06/14 10:38:58;;;;;;;2.20;2.00;;;;;;;;;;5077796;28;20479;-62
2023/06/14 10:41:25;;;;;;;3.03;2.07;;;;;;;;;;5093536;28;20845;-62
2023/06/14 10:43:54;;;;;;;2.33;2.13;;;;;;;;;;5092956;28;20450;-62
2023/06/14 10:46:23;;;;;;;3.93;2.50;;;;;;;;;;5092175;28;20451;-62
2023/06/14 10:48:50;;;;;;;4.60;2.10;;;;;;;;;;5092779;28;20458;-62
2023/06/14 10:51:20;;;;;;;3.83;2.20;;;;;;;;;;5093348;28;20445;-62
2023/06/14 10:53:47;;;;;;;2.37;2.17;;;;;;;;;;5092892;28;20471;-62
2023/06/14 10:56:26;;;;;;;5.47;2.20;;;;;;;;;;5092693;28;20940;-61
2023/06/14 10:58:56;;;;;;;3.03;2.00;;;;;;;;;;5093054;28;20471;-62
2023/06/14 11:01:28;;;;;;;3.37;2.37;;;;;;;;;;5093607;28;20462;-62
2023/06/14 11:03:55;;;;;;;2.60;2.10;;;;;;;;;;5093738;28;20942;-62
2023/06/14 11:06:24;;;;;;;2.83;2.17;;;;;;;;;;5096949;28;20479;-62
2023/06/14 11:09:12;;;;;;;7.03;2.57;;;;;;;;;;5096950;28;20439;-62
2023/06/14 11:11:39;;;;;;;2.40;2.20;;;;;;;;;;5097232;28;20753;-62
2023/06/14 11:14:08;;;;;;;3.93;2.27;;;;;;;;;;5096395;28;20442;-62
2023/06/14 11:16:35;;;;;;;4.03;2.23;;;;;;;;;;5095829;28;20448;-62
2023/06/14 11:19:04;;;;;;;3.30;2.70;;;;;;;;;;5095880;28;20475;-62
2023/06/14 11:21:33;;;;;;;6.10;2.20;;;;;;;;;;5096743;28;20443;-62
2023/06/14 11:24:00;;;;;;;4.60;2.30;;;;;;;;;;5096306;28;20444;-62
2023/06/14 11:26:28;;;;;;;2.80;2.50;;;;;;;;;;5096566;28;20435;-62
2023/06/14 11:28:58;;;;;;;2.60;2.30;;;;;;;;;;5096437;28;20846;-62
2023/06/14 11:31:27;;;;;;;5.33;2.77;;;;;;;;;;5096643;28;20463;-62
2023/06/14 11:33:55;;;;;;;2.83;2.63;;;;;;;;;;5095918;28;20447;-62
2023/06/14 11:36:22;;;;;;;4.03;2.50;;;;;;;;;;5096451;28;20820;-62
2023/06/14 11:38:50;;;;;;;5.00;2.50;;;;;;;;;;5096506;28;20484;-62
2023/06/14 11:41:17;;;;;;;3.00;2.80;;;;;;;;;;5096333;28;20450;-62
2023/06/14 11:43:44;;;;;;;2.50;2.20;;;;;;;;;;5095864;28;20445;-62
2023/06/14 11:46:16;;;;;;;3.30;2.40;;;;;;;;;;5095903;28;20444;-62
2023/06/14 11:48:45;;;;;;;3.10;2.17;;;;;;;;;;5095826;28;20447;-62
2023/06/14 11:51:12;;;;;;;2.63;2.43;;;;;;;;;;5096156;28;20782;-62
2023/06/14 11:53:39;;;;;;;2.30;2.10;;;;;;;;;;5096050;28;20457;-62
2023/06/14 11:56:07;;;;;;;3.00;2.30;;;;;;;;;;5096075;28;20467;-62
2023/06/14 11:58:34;;;;;;;8.43;2.43;;;;;;;;;;5095850;28;20476;-62
2023/06/14 12:01:02;;;;;;;4.00;2.63;;;;;;;;;;5096384;28;20455;-62
2023/06/14 12:03:29;;;;;;;6.03;2.90;;;;;;;;;;5095475;28;20474;-62
2023/06/14 12:06:08;;;;;;;3.50;3.10;;;;;;;;;;5095572;28;20437;-62
2023/06/14 12:08:38;;;;;;;2.70;2.50;;;;;;;;;;5095681;28;20463;-62
2023/06/14 12:11:06;;;;;;;7.00;2.60;;;;;;;;;;5096004;28;20456;-63
2023/06/14 12:13:33;;;;;;;2.20;1.93;;;;;;;;;;5095361;28;20437;-62
2023/06/14 12:16:01;;;;;;;3.30;2.60;;;;;;;;;;5094389;28;20440;-62
2023/06/14 12:18:35;;;;;;;4.63;2.60;;;;;;;;;;5094405;28;20483;-62
2023/06/14 12:21:03;;;;;;;4.90;2.67;;;;;;;;;;5095661;28;20488;-62
2023/06/14 12:23:41;;;;;;;2.57;2.37;;;;;;;;;;5095004;28;20446;-62
2023/06/14 12:26:08;;;;;;;3.63;3.03;;;;;;;;;;5095450;28;20431;-62
2023/06/14 12:28:36;;;;;;;37.17;5.03;;;;;;;;;;5095174;28;20455;-61
2023/06/14 12:31:03;;;;;;;2.43;2.30;;;;;;;;;;5094764;28;20476;-62
2023/06/14 12:33:30;;;;;;;2.70;2.50;;;;;;;;;;5094749;28;20448;-62
2023/06/14 12:35:57;;;;;;;9.50;5.10;;;;;;;;;;5094716;28;20439;-62
2023/06/14 12:38:25;;;;;;;3.40;2.40;;;;;;;;;;5094169;28;21044;-63
2023/06/14 12:40:53;;;;;;;4.10;3.00;;;;;;;;;;5095223;28;20445;-62
2023/06/14 12:43:21;;;;;;;5.67;3.13;;;;;;;;;;5094690;28;20422;-62
2023/06/14 12:45:48;;;;;;;3.90;3.00;;;;;;;;;;5094853;28;20777;-63
2023/06/14 12:48:15;;;;;;;3.83;2.80;;;;;;;;;;5095039;28;20531;-62
2023/06/14 12:50:42;;;;;;;3.07;2.53;;;;;;;;;;5094716;28;20415;-63
2023/06/14 12:53:09;;;;;;;3.63;2.63;;;;;;;;;;5095051;28;20418;-62
2023/06/14 12:55:36;;;;;;;3.30;3.00;;;;;;;;;;5094646;28;20426;-62
2023/06/14 12:58:05;;;;;;;4.17;3.77;;;;;;;;;;5094347;28;20447;-63
2023/06/14 13:00:32;;;;;;;6.17;2.73;;;;;;;;;;5094546;28;20421;-63
2023/06/14 13:02:59;;;;;;;3.10;2.80;;;;;;;;;;5094871;28;20414;-63
2023/06/14 13:05:27;;;;;;;3.13;2.40;;;;;;;;;;5094596;28;20425;-62
2023/06/14 13:07:54;;;;;;;6.97;4.87;;;;;;;;;;5084862;28;20440;-62
2023/06/14 13:10:21;;;;;;;5.77;4.67;;;;;;;;;;5074125;28;20420;-62
2023/06/14 13:12:48;;;;;;;3.30;3.00;;;;;;;;;;5074228;28;20415;-62
2023/06/14 13:15:17;;;;;;;3.63;3.10;;;;;;;;;;5074163;28;20538;-63
2023/06/14 13:17:48;;;;;;;3.03;2.83;;;;;;;;;;5073486;28;20768;-63
2023/06/14 13:20:16;;;;;;;3.13;2.83;;;;;;;;;;5073590;28;20449;-63
2023/06/14 13:22:43;;;;;;;2.33;2.13;;;;;;;;;;5073747;28;20498;-63
2023/06/14 13:25:10;;;;;;;3.93;2.60;;;;;;;;;;5073572;28;20926;-62
2023/06/14 13:27:38;;;;;;;5.00;2.53;;;;;;;;;;5073288;28;20484;-63
2023/06/14 13:30:06;;;;;;;3.67;2.60;;;;;;;;;;5073282;28;20472;-62
2023/06/14 13:32:34;;;;;;;2.27;2.07;;;;;;;;;;5073774;28;20420;-63
2023/06/14 13:35:03;;;;;;;3.60;2.43;;;;;;;;;;5073379;28;20426;-63
2023/06/14 13:37:31;;;;;;;2.63;2.43;;;;;;;;;;5073261;28;20494;-63
2023/06/14 13:39:58;;;;;;;2.60;2.40;;;;;;;;;;5073317;28;20452;-62
2023/06/14 13:42:25;;;;;;;3.63;2.80;;;;;;;;;;5073437;28;20461;-63
2023/06/14 13:44:52;;;;;;;3.20;2.43;;;;;;;;;;5073240;28;20419;-63
2023/06/14 13:47:20;;;;;;;4.47;2.17;;;;;;;;;;5090806;28;20441;-63
2023/06/14 13:49:48;;;;;;;3.73;2.90;;;;;;;;;;5093819;28;20446;-62
2023/06/14 13:52:15;;;;;;;5.47;3.50;;;;;;;;;;5093976;28;20442;-62
2023/06/14 13:54:43;;;;;;;3.20;2.40;;;;;;;;;;5093542;28;20473;-63
2023/06/14 13:57:12;;;;;;;3.83;2.60;;;;;;;;;;5093116;28;20503;-63
2023/06/14 13:59:39;;;;;;;5.50;2.73;;;;;;;;;;5093394;28;20825;-63
2023/06/14 14:02:07;;;;;;;2.50;2.30;;;;;;;;;;5093278;28;20447;-63
2023/06/14 14:04:35;;;;;;;7.13;2.67;;;;;;;;;;5093230;28;20443;-63
2023/06/14 14:07:04;;;;;;;8.73;2.50;;;;;;;;;;5092764;28;20448;-63
2023/06/14 14:09:31;;;;;;;3.00;2.70;;;;;;;;;;5093151;28;20438;-62
2023/06/14 14:11:59;;;;;;;5.83;2.33;;;;;;;;;;5092783;28;20526;-63
2023/06/14 14:14:27;;;;;;;6.20;2.50;;;;;;;;;;5093203;28;20486;-63
2023/06/14 14:16:54;;;;;;;2.60;2.17;;;;;;;;;;5092409;28;20455;-63
2023/06/14 14:19:21;;;;;;;2.63;2.43;;;;;;;;;;5092764;28;20476;-63
2023/06/14 14:21:49;;;;;;;2.83;2.63;;;;;;;;;;5093197;28;20453;-62
2023/06/14 14:24:17;;;;;;;4.97;2.77;;;;;;;;;;5092914;28;20447;-63
2023/06/14 14:26:47;;;;;;;3.23;2.57;;;;;;;;;;5093065;28;20535;-63
2023/06/14 14:29:14;;;;;;;5.00;2.53;;;;;;;;;;5093232;28;20546;-63
2023/06/14 14:31:41;;;;;;;2.83;2.50;;;;;;;;;;5093063;28;20488;-63
2023/06/14 14:34:08;;;;;;;3.43;3.13;;;;;;;;;;5093070;28;20436;-62
2023/06/14 14:36:37;;;;;;;3.80;2.40;;;;;;;;;;5092576;28;20450;-63
2023/06/14 14:39:04;;;;;;;2.90;2.27;;;;;;;;;;5098208;28;20474;-62
2023/06/14 14:41:33;;;;;;;3.00;2.17;;;;;;;;;;5099320;28;20729;-62
2023/06/14 14:44:00;;;;;;;3.10;2.37;;;;;;;;;;5099913;28;20450;-63
2023/06/14 14:46:27;;;;;;;2.57;2.37;;;;;;;;;;5099488;28;20449;-63
2023/06/14 14:48:55;;;;;;;2.47;2.03;;;;;;;;;;5100220;28;20536;-63